Time;durP1;ratioP1;P1;durP2;ratioP2;P2;SDS_P1;SDS_P2;PMS_P1;PMS_P2;Temp;Humidity;BMP_temperature;BMP_pressure;BME280_temperature;BME280_humidity;BME280_pressure;Samples;Min_cycle;Max_cycle;Signal;HPM_P1;HPM_P2
2021/11/27 00:00:30;;;;;;;0.20;0.20;;;;;;;;;;5073993;28;20036;-88
2021/11/27 00:02:56;;;;;;;0.55;0.55;;;;;;;;;;5073931;28;20013;-86
2021/11/27 00:05:22;;;;;;;0.10;0.10;;;;;;;;;;5073916;28;20077;-87
2021/11/27 00:07:48;;;;;;;0.10;0.10;;;;;;;;;;5073743;28;20111;-85
2021/11/27 00:10:15;;;;;;;0.10;0.10;;;;;;;;;;5073883;28;20024;-87
2021/11/27 00:12:41;;;;;;;0.10;0.10;;;;;;;;;;5073720;28;20443;-86
2021/11/27 00:15:07;;;;;;;0.10;0.10;;;;;;;;;;5073902;28;20028;-86
2021/11/27 00:17:33;;;;;;;1.40;1.30;;;;;;;;;;5073339;28;20385;-86
2021/11/27 00:19:59;;;;;;;0.10;0.10;;;;;;;;;;5073762;28;20013;-86
2021/11/27 00:22:25;;;;;;;0.10;0.10;;;;;;;;;;5073203;28;20028;-87
2021/11/27 00:24:50;;;;;;;0.10;0.10;;;;;;;;;;5073261;28;20013;-86
2021/11/27 00:27:15;;;;;;;0.10;0.10;;;;;;;;;;5072987;28;20032;-87
2021/11/27 00:29:41;;;;;;;0.10;0.10;;;;;;;;;;5073828;28;20031;-87
2021/11/27 00:32:06;;;;;;;0.10;0.10;;;;;;;;;;5072136;28;20021;-86
2021/11/27 00:34:32;;;;;;;0.10;0.10;;;;;;;;;;5073801;28;20020;-88
2021/11/27 00:36:57;;;;;;;0.10;0.10;;;;;;;;;;5073458;28;20127;-87
2021/11/27 00:39:22;;;;;;;0.10;0.10;;;;;;;;;;5073702;28;20066;-86
2021/11/27 00:41:48;;;;;;;0.10;0.10;;;;;;;;;;5072883;28;20051;-87
2021/11/27 00:44:13;;;;;;;0.10;0.10;;;;;;;;;;5073569;28;20036;-86
2021/11/27 00:46:39;;;;;;;0.10;0.10;;;;;;;;;;5073148;28;20108;-86
2021/11/27 00:49:05;;;;;;;0.10;0.10;;;;;;;;;;5073255;28;20036;-86
2021/11/27 00:51:30;;;;;;;6.13;2.65;;;;;;;;;;5073403;28;20036;-87
2021/11/27 00:53:56;;;;;;;0.10;0.10;;;;;;;;;;5069033;28;20040;-84
2021/11/27 00:56:22;;;;;;;0.10;0.10;;;;;;;;;;5071783;28;20557;-86
2021/11/27 00:58:48;;;;;;;0.10;0.10;;;;;;;;;;5072808;28;20107;-86
2021/11/27 01:01:15;;;;;;;0.10;0.10;;;;;;;;;;5072673;28;20143;-86
2021/11/27 01:03:41;;;;;;;0.10;0.10;;;;;;;;;;5073358;28;20040;-86
2021/11/27 01:06:09;;;;;;;0.10;0.10;;;;;;;;;;5072193;28;20029;-86
2021/11/27 01:08:34;;;;;;;0.10;0.10;;;;;;;;;;5072911;28;20044;-85
2021/11/27 01:11:02;;;;;;;0.10;0.10;;;;;;;;;;5072764;28;20093;-85
2021/11/27 01:13:28;;;;;;;0.10;0.10;;;;;;;;;;5072946;28;20111;-85
2021/11/27 01:15:53;;;;;;;0.10;0.10;;;;;;;;;;5072867;28;20150;-85
2021/11/27 01:18:19;;;;;;;0.68;0.68;;;;;;;;;;5072889;28;20438;-85
2021/11/27 01:20:57;;;;;;;0.13;0.13;;;;;;;;;;5072891;28;20039;-85
2021/11/27 01:23:23;;;;;;;0.10;0.10;;;;;;;;;;5072964;28;20024;-86
2021/11/27 01:25:50;;;;;;;0.10;0.10;;;;;;;;;;5072628;28;20062;-85
2021/11/27 01:28:17;;;;;;;0.10;0.10;;;;;;;;;;5072884;28;20024;-84
2021/11/27 01:30:44;;;;;;;0.57;0.57;;;;;;;;;;5072180;28;20012;-84
2021/11/27 01:33:09;;;;;;;0.10;0.10;;;;;;;;;;5072659;28;20029;-85
2021/11/27 01:35:35;;;;;;;0.10;0.10;;;;;;;;;;5075863;28;20093;-85
2021/11/27 01:38:00;;;;;;;0.10;0.10;;;;;;;;;;5075242;28;20436;-85
2021/11/27 01:40:27;;;;;;;0.40;0.40;;;;;;;;;;5076306;28;20035;-85
2021/11/27 01:42:54;;;;;;;0.10;0.10;;;;;;;;;;5074857;28;20526;-84
2021/11/27 01:45:20;;;;;;;0.10;0.10;;;;;;;;;;5076170;28;20479;-84
2021/11/27 01:47:51;;;;;;;0.10;0.10;;;;;;;;;;5076357;28;20020;-84
2021/11/27 01:50:16;;;;;;;0.90;0.85;;;;;;;;;;5076339;28;20013;-84
2021/11/27 01:52:42;;;;;;;0.10;0.10;;;;;;;;;;5076500;28;20020;-85
2021/11/27 01:55:07;;;;;;;0.10;0.10;;;;;;;;;;5076218;28;20049;-86
2021/11/27 01:57:33;;;;;;;0.10;0.10;;;;;;;;;;5076184;28;20480;-85
2021/11/27 02:00:00;;;;;;;10.02;1.48;;;;;;;;;;5074899;28;20016;-84
2021/11/27 02:02:26;;;;;;;0.10;0.10;;;;;;;;;;5076316;28;20036;-85
2021/11/27 02:04:51;;;;;;;4.95;2.28;;;;;;;;;;5075968;28;20028;-86
2021/11/27 02:07:16;;;;;;;0.10;0.10;;;;;;;;;;5072521;28;20020;-85
2021/11/27 02:09:42;;;;;;;0.15;0.15;;;;;;;;;;5076057;28;20036;-85
2021/11/27 02:12:10;;;;;;;0.10;0.10;;;;;;;;;;5075442;28;20055;-85
2021/11/27 02:14:35;;;;;;;0.10;0.10;;;;;;;;;;5076097;28;20017;-85
2021/11/27 02:17:00;;;;;;;0.40;0.40;;;;;;;;;;5075837;28;20043;-84
2021/11/27 02:19:26;;;;;;;0.10;0.10;;;;;;;;;;5075820;28;20123;-84
2021/11/27 02:21:51;;;;;;;0.10;0.10;;;;;;;;;;5075990;28;20040;-86
2021/11/27 02:24:18;;;;;;;0.63;0.63;;;;;;;;;;5069806;28;20040;-85
2021/11/27 02:26:44;;;;;;;0.10;0.10;;;;;;;;;;5072203;28;20024;-84
2021/11/27 02:29:12;;;;;;;0.10;0.10;;;;;;;;;;5075236;28;20077;-84
2021/11/27 02:31:38;;;;;;;0.10;0.10;;;;;;;;;;5074185;28;20066;-85
2021/11/27 02:34:04;;;;;;;0.90;0.85;;;;;;;;;;5075683;28;20017;-84
2021/11/27 02:36:29;;;;;;;0.10;0.10;;;;;;;;;;5075654;28;20090;-86
2021/11/27 02:38:55;;;;;;;0.10;0.10;;;;;;;;;;5075580;28;20040;-83
2021/11/27 02:41:20;;;;;;;0.10;0.10;;;;;;;;;;5074953;28;20406;-82
2021/11/27 02:43:46;;;;;;;0.10;0.10;;;;;;;;;;5075468;28;20021;-81
2021/11/27 02:46:11;;;;;;;0.10;0.10;;;;;;;;;;5062220;28;20024;-82
2021/11/27 02:48:37;;;;;;;0.10;0.10;;;;;;;;;;5070376;28;20021;-82
2021/11/27 02:51:02;;;;;;;0.10;0.10;;;;;;;;;;5075346;28;20044;-81
2021/11/27 02:53:28;;;;;;;3.63;1.75;;;;;;;;;;5074998;28;20032;-81
2021/11/27 02:55:53;;;;;;;0.10;0.10;;;;;;;;;;5074950;28;20466;-81
2021/11/27 02:58:19;;;;;;;0.10;0.10;;;;;;;;;;5075096;28;20027;-81
2021/11/27 03:00:44;;;;;;;0.10;0.10;;;;;;;;;;5074888;28;20098;-82
2021/11/27 03:03:09;;;;;;;0.10;0.10;;;;;;;;;;5073366;28;20023;-84
2021/11/27 03:05:35;;;;;;;0.10;0.10;;;;;;;;;;5075362;28;20456;-83
2021/11/27 03:08:00;;;;;;;0.10;0.10;;;;;;;;;;5074953;28;20067;-84
2021/11/27 03:10:26;;;;;;;0.10;0.10;;;;;;;;;;5075030;28;20016;-84
2021/11/27 03:12:52;;;;;;;0.10;0.10;;;;;;;;;;5074875;28;20425;-84
2021/11/27 03:15:17;;;;;;;0.10;0.10;;;;;;;;;;5074957;28;20033;-84
2021/11/27 03:17:43;;;;;;;1.17;1.10;;;;;;;;;;5074753;28;20445;-83
2021/11/27 03:20:10;;;;;;;0.10;0.10;;;;;;;;;;5074688;28;20008;-83
2021/11/27 03:22:35;;;;;;;1.00;1.00;;;;;;;;;;5074606;28;20039;-84
2021/11/27 03:25:00;;;;;;;0.10;0.10;;;;;;;;;;5070660;28;20017;-82
2021/11/27 03:27:26;;;;;;;0.10;0.10;;;;;;;;;;5074670;28;20082;-84
2021/11/27 03:29:51;;;;;;;2.60;1.30;;;;;;;;;;5074086;28;20035;-85
2021/11/27 03:32:17;;;;;;;0.10;0.10;;;;;;;;;;5073142;28;20024;-85
2021/11/27 03:34:43;;;;;;;0.10;0.10;;;;;;;;;;5074633;28;20016;-85
2021/11/27 03:37:09;;;;;;;0.10;0.10;;;;;;;;;;5074077;28;20041;-85
2021/11/27 03:39:35;;;;;;;0.10;0.10;;;;;;;;;;5074167;28;20099;-84
2021/11/27 03:42:01;;;;;;;3.58;1.95;;;;;;;;;;5074436;28;20047;-84
2021/11/27 03:44:27;;;;;;;0.00;0.00;;;;;;;;;;5074445;28;20119;-85
2021/11/27 03:46:53;;;;;;;0.10;0.10;;;;;;;;;;5074385;28;20533;-84
2021/11/27 03:49:25;;;;;;;0.47;0.47;;;;;;;;;;5074033;28;20024;-84
2021/11/27 03:51:50;;;;;;;0.10;0.10;;;;;;;;;;5062228;28;20029;-84
2021/11/27 03:54:16;;;;;;;0.20;0.20;;;;;;;;;;5073627;28;20090;-85
2021/11/27 03:56:41;;;;;;;0.10;0.10;;;;;;;;;;5073904;28;20025;-85
2021/11/27 03:59:06;;;;;;;3.20;1.95;;;;;;;;;;5073722;28;20112;-85
2021/11/27 04:01:32;;;;;;;0.10;0.10;;;;;;;;;;5073914;28;20016;-84
2021/11/27 04:03:59;;;;;;;0.10;0.10;;;;;;;;;;5073641;28;20032;-85
2021/11/27 04:06:25;;;;;;;29.20;1.75;;;;;;;;;;5073846;28;20079;-85
2021/11/27 04:08:50;;;;;;;0.10;0.10;;;;;;;;;;5073624;28;20095;-85
2021/11/27 04:11:16;;;;;;;0.10;0.10;;;;;;;;;;5069743;28;20024;-85
2021/11/27 04:13:41;;;;;;;0.10;0.10;;;;;;;;;;5073871;28;20101;-84
2021/11/27 04:16:06;;;;;;;0.10;0.10;;;;;;;;;;5073409;28;20027;-85
2021/11/27 04:18:32;;;;;;;0.10;0.10;;;;;;;;;;5072610;28;20476;-84
2021/11/27 04:20:57;;;;;;;0.10;0.10;;;;;;;;;;5071037;28;20033;-85
2021/11/27 04:23:23;;;;;;;0.10;0.10;;;;;;;;;;5073508;28;20099;-84
2021/11/27 04:25:48;;;;;;;0.10;0.10;;;;;;;;;;5073294;28;20031;-84
2021/11/27 04:28:14;;;;;;;0.30;0.30;;;;;;;;;;5073413;28;20036;-85
2021/11/27 04:30:40;;;;;;;0.10;0.10;;;;;;;;;;5073261;28;20017;-86
2021/11/27 04:33:05;;;;;;;1.00;1.00;;;;;;;;;;5072703;28;20070;-86
2021/11/27 04:35:31;;;;;;;0.10;0.10;;;;;;;;;;5072959;28;20044;-85
2021/11/27 04:37:57;;;;;;;0.10;0.10;;;;;;;;;;5073379;28;20008;-84
2021/11/27 04:40:23;;;;;;;0.10;0.10;;;;;;;;;;5073263;28;20112;-86
2021/11/27 04:42:48;;;;;;;0.10;0.10;;;;;;;;;;5072984;28;20427;-83
2021/11/27 04:45:14;;;;;;;0.10;0.10;;;;;;;;;;5073466;28;20013;-85
2021/11/27 04:47:39;;;;;;;0.10;0.10;;;;;;;;;;5072890;28;20019;-83
2021/11/27 04:50:06;;;;;;;0.10;0.10;;;;;;;;;;5073012;28;20035;-84
2021/11/27 04:52:31;;;;;;;0.10;0.10;;;;;;;;;;5072824;28;20039;-83
2021/11/27 04:54:57;;;;;;;0.10;0.10;;;;;;;;;;5073140;28;20548;-85
2021/11/27 04:57:22;;;;;;;0.10;0.10;;;;;;;;;;5073073;28;20076;-84
2021/11/27 04:59:47;;;;;;;0.10;0.10;;;;;;;;;;5072818;28;20012;-85
2021/11/27 05:02:13;;;;;;;0.10;0.10;;;;;;;;;;5069314;28;20017;-83
2021/11/27 05:04:38;;;;;;;1.65;1.42;;;;;;;;;;5073024;28;20063;-83
2021/11/27 05:07:04;;;;;;;0.10;0.10;;;;;;;;;;5072714;28;20009;-83
2021/11/27 05:09:29;;;;;;;0.10;0.10;;;;;;;;;;5072206;28;20394;-82
2021/11/27 05:11:55;;;;;;;0.10;0.10;;;;;;;;;;5072515;28;20045;-82
2021/11/27 05:14:20;;;;;;;0.10;0.10;;;;;;;;;;5072473;28;20492;-82
2021/11/27 05:16:45;;;;;;;0.10;0.10;;;;;;;;;;5073081;28;20437;-81
2021/11/27 05:19:10;;;;;;;0.10;0.10;;;;;;;;;;5072735;28;20051;-83
2021/11/27 05:21:36;;;;;;;0.10;0.10;;;;;;;;;;5073093;28;20040;-85
2021/11/27 05:24:01;;;;;;;0.10;0.10;;;;;;;;;;5072445;28;20085;-84
2021/11/27 05:26:27;;;;;;;0.28;0.28;;;;;;;;;;5072858;28;20032;-84
2021/11/27 05:28:52;;;;;;;0.55;0.55;;;;;;;;;;5072535;28;20408;-84
2021/11/27 05:31:18;;;;;;;0.10;0.10;;;;;;;;;;5072826;28;20017;-84
2021/11/27 05:36:10;;;;;;;0.10;0.10;;;;;;;;;;5072635;28;20036;-83
2021/11/27 05:38:35;;;;;;;1.55;1.35;;;;;;;;;;5072595;28;20048;-83
2021/11/27 05:41:01;;;;;;;0.10;0.10;;;;;;;;;;5072411;28;20473;-84
2021/11/27 05:43:26;;;;;;;0.10;0.10;;;;;;;;;;5072798;28;20020;-82
2021/11/27 05:45:51;;;;;;;0.10;0.10;;;;;;;;;;5072105;28;20381;-83
2021/11/27 05:48:17;;;;;;;0.40;0.40;;;;;;;;;;5072464;28;20037;-83
2021/11/27 05:50:42;;;;;;;0.10;0.10;;;;;;;;;;5072750;28;20032;-83
2021/11/27 05:53:07;;;;;;;0.10;0.10;;;;;;;;;;5072307;28;20028;-84
2021/11/27 05:55:33;;;;;;;0.10;0.10;;;;;;;;;;5072506;28;20080;-82
2021/11/27 05:57:58;;;;;;;2.85;1.55;;;;;;;;;;5072327;28;20056;-84
2021/11/27 06:00:23;;;;;;;0.10;0.10;;;;;;;;;;5072269;28;20017;-83
2021/11/27 06:02:49;;;;;;;0.10;0.10;;;;;;;;;;5072296;28;20107;-81
2021/11/27 06:05:14;;;;;;;0.15;0.15;;;;;;;;;;5072517;28;20013;-81
2021/11/27 06:07:39;;;;;;;0.10;0.10;;;;;;;;;;5072386;28;20449;-82
2021/11/27 06:10:06;;;;;;;0.10;0.10;;;;;;;;;;5072279;28;20078;-82
2021/11/27 06:12:31;;;;;;;0.10;0.10;;;;;;;;;;5072166;28;20044;-83
2021/11/27 06:14:56;;;;;;;3.25;1.30;;;;;;;;;;5072505;28;20275;-82
2021/11/27 06:17:22;;;;;;;0.10;0.10;;;;;;;;;;5072098;28;20502;-81
2021/11/27 06:19:48;;;;;;;0.10;0.10;;;;;;;;;;5072296;28;20361;-81
2021/11/27 06:22:13;;;;;;;0.20;0.20;;;;;;;;;;5074395;28;20016;-82
2021/11/27 06:24:39;;;;;;;0.10;0.10;;;;;;;;;;5075342;28;20116;-83
2021/11/27 06:27:05;;;;;;;0.10;0.10;;;;;;;;;;5075302;28;20043;-84
2021/11/27 06:29:30;;;;;;;0.10;0.10;;;;;;;;;;5075936;28;20012;-83
2021/11/27 06:31:58;;;;;;;0.10;0.10;;;;;;;;;;5075320;28;20051;-83
2021/11/27 06:34:23;;;;;;;0.10;0.10;;;;;;;;;;5075569;28;20371;-83
2021/11/27 06:36:49;;;;;;;0.10;0.10;;;;;;;;;;5074073;28;20032;-84
2021/11/27 06:39:14;;;;;;;0.10;0.10;;;;;;;;;;5075663;28;20132;-83
2021/11/27 06:41:39;;;;;;;0.20;0.20;;;;;;;;;;5075213;28;20020;-83
2021/11/27 06:44:05;;;;;;;3.50;0.80;;;;;;;;;;5075291;28;20024;-82
2021/11/27 06:46:30;;;;;;;0.10;0.10;;;;;;;;;;5075311;28;20032;-81
2021/11/27 06:48:55;;;;;;;2.05;1.20;;;;;;;;;;5075280;28;20024;-82
2021/11/27 06:51:21;;;;;;;0.10;0.10;;;;;;;;;;5075483;28;20017;-81
2021/11/27 06:53:46;;;;;;;0.10;0.10;;;;;;;;;;5075038;28;20028;-82
2021/11/27 06:56:11;;;;;;;0.15;0.15;;;;;;;;;;5075105;28;20024;-82
2021/11/27 06:58:37;;;;;;;0.10;0.10;;;;;;;;;;5074678;28;20021;-81
2021/11/27 07:01:02;;;;;;;0.10;0.10;;;;;;;;;;5073845;28;20124;-81
2021/11/27 07:03:27;;;;;;;0.10;0.10;;;;;;;;;;5074916;28;20020;-81
2021/11/27 07:05:53;;;;;;;1.27;1.17;;;;;;;;;;5075247;28;20039;-82
2021/11/27 07:08:18;;;;;;;0.10;0.10;;;;;;;;;;5074555;28;20460;-82
2021/11/27 07:10:44;;;;;;;0.10;0.10;;;;;;;;;;5074983;28;20089;-81
2021/11/27 07:13:09;;;;;;;1.98;0.45;;;;;;;;;;5074486;28;20043;-82
2021/11/27 07:15:35;;;;;;;0.10;0.10;;;;;;;;;;5073448;28;20077;-81
2021/11/27 07:18:00;;;;;;;0.10;0.10;;;;;;;;;;5074549;28;20484;-81
2021/11/27 07:20:25;;;;;;;0.10;0.10;;;;;;;;;;5074890;28;20453;-81
2021/11/27 07:22:51;;;;;;;0.10;0.10;;;;;;;;;;5074303;28;20089;-82
2021/11/27 07:25:16;;;;;;;0.10;0.10;;;;;;;;;;5074816;28;20034;-82
2021/11/27 07:27:41;;;;;;;0.25;0.25;;;;;;;;;;5074715;28;20373;-82
2021/11/27 07:30:07;;;;;;;0.80;0.80;;;;;;;;;;5074252;28;20032;-82
2021/11/27 07:32:34;;;;;;;0.10;0.10;;;;;;;;;;5074262;28;20005;-82
2021/11/27 07:34:59;;;;;;;0.10;0.10;;;;;;;;;;5074416;28;20044;-83
2021/11/27 07:37:24;;;;;;;0.10;0.10;;;;;;;;;;5072918;28;20121;-84
2021/11/27 07:39:50;;;;;;;0.10;0.10;;;;;;;;;;5074316;28;20017;-82
2021/11/27 07:42:15;;;;;;;0.10;0.10;;;;;;;;;;5074136;28;20024;-82
2021/11/27 07:44:40;;;;;;;0.55;0.55;;;;;;;;;;5073884;28;20028;-83
2021/11/27 07:47:05;;;;;;;0.10;0.10;;;;;;;;;;5074164;28;20026;-82
2021/11/27 07:49:31;;;;;;;0.30;0.30;;;;;;;;;;5074059;28;20016;-82
2021/11/27 07:51:56;;;;;;;0.10;0.10;;;;;;;;;;5072331;28;20082;-83
2021/11/27 07:54:21;;;;;;;0.10;0.10;;;;;;;;;;5073566;28;20040;-84
2021/11/27 07:56:47;;;;;;;0.10;0.10;;;;;;;;;;5074064;28;20032;-83
2021/11/27 07:59:12;;;;;;;0.10;0.10;;;;;;;;;;5074037;28;20032;-84
2021/11/27 08:01:38;;;;;;;0.10;0.10;;;;;;;;;;5074097;28;20046;-83
2021/11/27 08:04:03;;;;;;;0.10;0.10;;;;;;;;;;5073442;28;20012;-84
2021/11/27 08:06:29;;;;;;;0.10;0.10;;;;;;;;;;5072906;28;20039;-83
2021/11/27 08:08:54;;;;;;;0.10;0.10;;;;;;;;;;5072324;28;20096;-83
2021/11/27 08:11:20;;;;;;;17.58;2.05;;;;;;;;;;5073731;28;20039;-83
2021/11/27 08:13:47;;;;;;;0.10;0.10;;;;;;;;;;5073700;28;20028;-84
2021/11/27 08:16:13;;;;;;;0.08;0.08;;;;;;;;;;5073518;28;20035;-83
2021/11/27 08:18:38;;;;;;;0.10;0.10;;;;;;;;;;5073707;28;20021;-83
2021/11/27 08:21:04;;;;;;;0.10;0.10;;;;;;;;;;5073663;28;20048;-82
2021/11/27 08:23:29;;;;;;;0.17;0.17;;;;;;;;;;5073663;28;20055;-83
2021/11/27 08:25:55;;;;;;;0.10;0.10;;;;;;;;;;5071948;28;20048;-84
2021/11/27 08:28:20;;;;;;;0.10;0.10;;;;;;;;;;5073279;28;20029;-83
2021/11/27 08:30:46;;;;;;;0.10;0.10;;;;;;;;;;5073517;28;20516;-84
2021/11/27 08:33:11;;;;;;;0.10;0.10;;;;;;;;;;5073465;28;20027;-84
2021/11/27 08:35:36;;;;;;;0.10;0.10;;;;;;;;;;5073270;28;20074;-83
2021/11/27 08:38:01;;;;;;;0.10;0.10;;;;;;;;;;5073311;28;20013;-82
2021/11/27 08:40:27;;;;;;;0.10;0.10;;;;;;;;;;5073886;28;20044;-82
2021/11/27 08:42:52;;;;;;;0.10;0.10;;;;;;;;;;5071730;28;20443;-83
2021/11/27 08:45:18;;;;;;;1.75;1.65;;;;;;;;;;5072174;28;20020;-83
2021/11/27 08:47:43;;;;;;;0.22;0.22;;;;;;;;;;5073045;28;20028;-82
2021/11/27 08:50:09;;;;;;;0.10;0.10;;;;;;;;;;5073343;28;20032;-83
2021/11/27 08:52:35;;;;;;;0.10;0.10;;;;;;;;;;5072627;28;20012;-82
2021/11/27 08:55:00;;;;;;;0.10;0.10;;;;;;;;;;5072772;28;20400;-82
2021/11/27 08:57:25;;;;;;;0.10;0.10;;;;;;;;;;5073008;28;20047;-81
2021/11/27 08:59:51;;;;;;;0.10;0.10;;;;;;;;;;5072935;28;20011;-81
2021/11/27 09:02:17;;;;;;;0.10;0.10;;;;;;;;;;5073297;28;20035;-82
2021/11/27 09:04:42;;;;;;;0.10;0.10;;;;;;;;;;5067770;28;20028;-83
2021/11/27 09:07:08;;;;;;;0.10;0.10;;;;;;;;;;5072731;28;20023;-83
2021/11/27 09:09:33;;;;;;;0.10;0.10;;;;;;;;;;5069933;28;20021;-83
2021/11/27 09:12:00;;;;;;;0.10;0.10;;;;;;;;;;5072504;28;20029;-84
2021/11/27 09:14:26;;;;;;;0.10;0.10;;;;;;;;;;5072770;28;20017;-84
2021/11/27 09:16:52;;;;;;;0.10;0.10;;;;;;;;;;5072755;28;20036;-82
2021/11/27 09:19:18;;;;;;;0.10;0.10;;;;;;;;;;5072762;28;20041;-81
2021/11/27 09:21:43;;;;;;;0.10;0.10;;;;;;;;;;5072884;28;20087;-84
2021/11/27 09:24:09;;;;;;;0.10;0.10;;;;;;;;;;5072693;28;20024;-84
2021/11/27 09:26:37;;;;;;;0.10;0.10;;;;;;;;;;5072760;28;20035;-84
2021/11/27 09:29:02;;;;;;;0.10;0.10;;;;;;;;;;5073111;28;20019;-84
2021/11/27 09:31:28;;;;;;;0.10;0.10;;;;;;;;;;5072769;28;20029;-83
2021/11/27 09:33:53;;;;;;;0.10;0.10;;;;;;;;;;5072364;28;20024;-83
2021/11/27 09:36:21;;;;;;;0.10;0.10;;;;;;;;;;5072985;28;20032;-83
2021/11/27 09:38:48;;;;;;;0.10;0.10;;;;;;;;;;5072609;28;20027;-84
2021/11/27 09:41:20;;;;;;;0.10;0.10;;;;;;;;;;5071300;28;20036;-83
2021/11/27 09:43:47;;;;;;;0.10;0.10;;;;;;;;;;5072454;28;20025;-83
2021/11/27 09:46:13;;;;;;;0.10;0.10;;;;;;;;;;5072566;28;20029;-82
2021/11/27 09:48:40;;;;;;;0.10;0.10;;;;;;;;;;5070366;28;20127;-82
2021/11/27 09:51:06;;;;;;;0.10;0.10;;;;;;;;;;5072281;28;20012;-82
2021/11/27 09:53:32;;;;;;;0.10;0.10;;;;;;;;;;5071854;28;20053;-82
2021/11/27 09:56:02;;;;;;;0.65;0.65;;;;;;;;;;5070236;28;20483;-82
2021/11/27 09:58:27;;;;;;;0.10;0.10;;;;;;;;;;5073588;28;20066;-83
2021/11/27 10:00:52;;;;;;;0.10;0.10;;;;;;;;;;5076541;28;20028;-82
2021/11/27 10:03:18;;;;;;;0.10;0.10;;;;;;;;;;5076174;28;20039;-83
2021/11/27 10:05:46;;;;;;;2.20;0.95;;;;;;;;;;5076334;28;20100;-83
2021/11/27 10:08:12;;;;;;;1.88;1.75;;;;;;;;;;5076083;28;20075;-82
2021/11/27 10:10:38;;;;;;;0.10;0.10;;;;;;;;;;5076230;28;20423;-83
2021/11/27 10:13:03;;;;;;;0.10;0.10;;;;;;;;;;5074545;28;20017;-83
2021/11/27 10:15:29;;;;;;;0.10;0.10;;;;;;;;;;5074790;28;20025;-83
2021/11/27 10:17:54;;;;;;;0.10;0.10;;;;;;;;;;5074805;28;20119;-83
2021/11/27 10:20:19;;;;;;;0.10;0.10;;;;;;;;;;5074780;28;20491;-82
2021/11/27 10:22:54;;;;;;;0.10;0.10;;;;;;;;;;5075860;28;20465;-82
2021/11/27 10:25:30;;;;;;;0.10;0.10;;;;;;;;;;5075661;28;20468;-82
2021/11/27 10:28:06;;;;;;;0.10;0.10;;;;;;;;;;5075853;28;20035;-82
2021/11/27 10:30:42;;;;;;;0.30;0.30;;;;;;;;;;5075749;28;20162;-83
2021/11/27 10:33:07;;;;;;;0.30;0.30;;;;;;;;;;5075811;28;20678;-83
2021/11/27 10:35:33;;;;;;;0.10;0.10;;;;;;;;;;5075772;28;20123;-82
2021/11/27 10:37:58;;;;;;;0.10;0.10;;;;;;;;;;5075752;28;20396;-83
2021/11/27 10:40:28;;;;;;;0.10;0.10;;;;;;;;;;5075567;28;20032;-82
2021/11/27 10:43:13;;;;;;;0.10;0.10;;;;;;;;;;5074312;28;20380;-83
2021/11/27 10:45:40;;;;;;;0.10;0.10;;;;;;;;;;5066581;28;20044;-82
2021/11/27 10:48:13;;;;;;;0.10;0.10;;;;;;;;;;5075503;28;20036;-81
2021/11/27 10:50:39;;;;;;;0.10;0.10;;;;;;;;;;5075617;28;20037;-83
2021/11/27 10:53:25;;;;;;;0.10;0.10;;;;;;;;;;5075317;28;20035;-82
2021/11/27 10:55:50;;;;;;;0.20;0.20;;;;;;;;;;5074843;28;20040;-82
2021/11/27 10:58:16;;;;;;;0.10;0.10;;;;;;;;;;5075325;28;20037;-81
2021/11/27 11:00:43;;;;;;;0.20;0.20;;;;;;;;;;5074698;28;20857;-81
2021/11/27 11:03:26;;;;;;;0.10;0.10;;;;;;;;;;5074294;28;20025;-81
2021/11/27 11:05:53;;;;;;;0.43;0.40;;;;;;;;;;5074281;28;20477;-81
2021/11/27 11:08:29;;;;;;;0.20;0.20;;;;;;;;;;5073552;28;20503;-81
2021/11/27 11:10:54;;;;;;;0.63;0.63;;;;;;;;;;5074453;28;20043;-81
2021/11/27 11:13:28;;;;;;;0.10;0.10;;;;;;;;;;5074563;28;20110;-81
2021/11/27 11:15:53;;;;;;;0.10;0.10;;;;;;;;;;5074567;28;20400;-82
2021/11/27 11:18:21;;;;;;;0.17;0.15;;;;;;;;;;5074952;28;20025;-82
2021/11/27 11:20:50;;;;;;;0.10;0.10;;;;;;;;;;5074888;28;20108;-81
2021/11/27 11:23:18;;;;;;;0.50;0.50;;;;;;;;;;5074787;28;20098;-81
2021/11/27 11:26:01;;;;;;;1.60;1.50;;;;;;;;;;5074993;28;20031;-81
2021/11/27 11:28:29;;;;;;;0.10;0.10;;;;;;;;;;5074505;28;20550;-81
2021/11/27 11:30:56;;;;;;;0.20;0.20;;;;;;;;;;5074888;28;20028;-81
2021/11/27 11:33:21;;;;;;;0.17;0.17;;;;;;;;;;5074683;28;20024;-86
2021/11/27 11:35:47;;;;;;;0.13;0.13;;;;;;;;;;5074609;28;20020;-86
2021/11/27 11:38:14;;;;;;;0.10;0.10;;;;;;;;;;5074704;28;20028;-86
2021/11/27 11:40:40;;;;;;;0.22;0.22;;;;;;;;;;5074935;28;20026;-87
2021/11/27 11:43:06;;;;;;;0.10;0.10;;;;;;;;;;5072203;28;20105;-85
2021/11/27 11:45:31;;;;;;;0.10;0.10;;;;;;;;;;5074829;28;20039;-85
2021/11/27 11:47:57;;;;;;;0.35;0.35;;;;;;;;;;5074818;28;20020;-86
2021/11/27 11:50:23;;;;;;;0.28;0.28;;;;;;;;;;5073067;28;20046;-86
2021/11/27 11:53:07;;;;;;;8.15;2.40;;;;;;;;;;5070731;28;20033;-86
2021/11/27 11:55:33;;;;;;;0.10;0.10;;;;;;;;;;5074109;28;20063;-84
2021/11/27 11:58:01;;;;;;;0.32;0.32;;;;;;;;;;5074043;28;20036;-85
2021/11/27 12:00:28;;;;;;;0.10;0.10;;;;;;;;;;5074074;28;20047;-82
2021/11/27 12:03:03;;;;;;;0.20;0.20;;;;;;;;;;5074011;28;20020;-83
2021/11/27 12:05:29;;;;;;;0.10;0.10;;;;;;;;;;5061688;28;20039;-83
2021/11/27 12:07:57;;;;;;;0.30;0.30;;;;;;;;;;5074197;28;20025;-83
2021/11/27 12:10:25;;;;;;;0.10;0.10;;;;;;;;;;5074064;28;20035;-83
2021/11/27 12:13:05;;;;;;;0.10;0.10;;;;;;;;;;5074303;28;20017;-84
2021/11/27 12:15:32;;;;;;;0.10;0.10;;;;;;;;;;5073866;28;20025;-87
2021/11/27 12:18:07;;;;;;;0.57;0.57;;;;;;;;;;5073380;28;20486;-87
2021/11/27 12:20:53;;;;;;;0.52;0.52;;;;;;;;;;5073953;28;20029;-86
2021/11/27 12:26:10;;;;;;;0.20;0.20;;;;;;;;;;5073742;28;20028;-86
2021/11/27 12:28:40;;;;;;;0.30;0.30;;;;;;;;;;5073687;28;20039;-87
2021/11/27 12:31:18;;;;;;;0.10;0.10;;;;;;;;;;5073157;28;20174;-83
2021/11/27 12:33:46;;;;;;;0.52;0.50;;;;;;;;;;5073423;28;20102;-82
2021/11/27 12:36:26;;;;;;;0.10;0.10;;;;;;;;;;5073554;28;20174;-85
2021/11/27 12:38:56;;;;;;;0.10;0.10;;;;;;;;;;5073216;28;20481;-84
2021/11/27 12:41:32;;;;;;;0.73;0.73;;;;;;;;;;5073607;28;20039;-83
2021/11/27 12:44:11;;;;;;;0.10;0.10;;;;;;;;;;5067771;28;20052;-85
2021/11/27 12:46:37;;;;;;;0.10;0.10;;;;;;;;;;5073458;28;20024;-84
2021/11/27 12:49:02;;;;;;;0.10;0.10;;;;;;;;;;5073341;28;20385;-84
2021/11/27 12:51:28;;;;;;;0.63;0.63;;;;;;;;;;5071853;28;20067;-83
2021/11/27 12:54:03;;;;;;;0.47;0.35;;;;;;;;;;5073059;28;20025;-85
2021/11/27 12:56:30;;;;;;;0.20;0.20;;;;;;;;;;5073551;28;20052;-84
2021/11/27 12:58:58;;;;;;;0.20;0.20;;;;;;;;;;5073139;28;20049;-84
2021/11/27 13:01:30;;;;;;;0.10;0.10;;;;;;;;;;5072866;28;20034;-84
2021/11/27 13:03:57;;;;;;;0.28;0.28;;;;;;;;;;5073194;28;20040;-84
2021/11/27 13:06:22;;;;;;;0.10;0.10;;;;;;;;;;5073018;28;20530;-84
2021/11/27 13:08:48;;;;;;;0.10;0.10;;;;;;;;;;5071829;28;20040;-84
2021/11/27 13:11:14;;;;;;;0.10;0.10;;;;;;;;;;5073194;28;20029;-84
2021/11/27 13:13:41;;;;;;;1.90;1.75;;;;;;;;;;5073024;28;20038;-85
2021/11/27 13:16:10;;;;;;;0.10;0.10;;;;;;;;;;5073027;28;20071;-84
2021/11/27 13:18:35;;;;;;;0.20;0.20;;;;;;;;;;5073188;28;20099;-84
2021/11/27 13:21:08;;;;;;;0.20;0.20;;;;;;;;;;5072993;28;20055;-85
2021/11/27 13:23:37;;;;;;;0.32;0.32;;;;;;;;;;5071728;28;20032;-84
2021/11/27 13:26:04;;;;;;;0.10;0.10;;;;;;;;;;5072769;28;20021;-84
2021/11/27 13:28:37;;;;;;;15.43;0.80;;;;;;;;;;5073011;28;20036;-84
2021/11/27 13:31:04;;;;;;;0.10;0.10;;;;;;;;;;5071468;28;20150;-84
2021/11/27 13:33:50;;;;;;;4.47;3.85;;;;;;;;;;5065201;28;20029;-83
2021/11/27 13:36:15;;;;;;;;;;;;;;;;;;5077261;28;20044;-84
2021/11/27 13:38:40;;;;;;;1.10;1.00;;;;;;;;;;5076922;28;19904;-85
2021/11/27 13:41:05;;;;;;;0.10;0.10;;;;;;;;;;5076922;28;20032;-84
2021/11/27 13:43:31;;;;;;;0.20;0.20;;;;;;;;;;5077016;28;20056;-83
2021/11/27 13:46:01;;;;;;;0.40;0.40;;;;;;;;;;5076876;28;20067;-84
2021/11/27 13:48:27;;;;;;;0.10;0.10;;;;;;;;;;5077045;28;20185;-83
2021/11/27 13:50:52;;;;;;;0.10;0.10;;;;;;;;;;5076644;28;20520;-85
2021/11/27 13:53:19;;;;;;;0.20;0.20;;;;;;;;;;5072804;28;20103;-83
2021/11/27 13:55:48;;;;;;;0.55;0.55;;;;;;;;;;5076538;28;20554;-83
2021/11/27 13:58:15;;;;;;;0.15;0.15;;;;;;;;;;5076300;28;20495;-82
2021/11/27 14:00:41;;;;;;;0.10;0.10;;;;;;;;;;5076525;28;20013;-83
2021/11/27 14:03:09;;;;;;;0.10;0.10;;;;;;;;;;5076245;28;20031;-83
2021/11/27 14:05:39;;;;;;;0.10;0.10;;;;;;;;;;5076317;28;20032;-83
2021/11/27 14:08:23;;;;;;;0.10;0.10;;;;;;;;;;5076320;28;20512;-83
2021/11/27 14:10:57;;;;;;;0.13;0.13;;;;;;;;;;5076185;28;20033;-82
2021/11/27 14:13:23;;;;;;;0.10;0.10;;;;;;;;;;5076227;28;20020;-82
2021/11/27 14:15:48;;;;;;;0.10;0.10;;;;;;;;;;5072492;28;20036;-83
2021/11/27 14:18:25;;;;;;;0.43;0.43;;;;;;;;;;5071388;28;20024;-83
2021/11/27 14:20:52;;;;;;;0.63;0.63;;;;;;;;;;5075575;28;20036;-82
2021/11/27 14:23:17;;;;;;;0.10;0.10;;;;;;;;;;5075654;28;20032;-83
2021/11/27 14:25:59;;;;;;;0.20;0.20;;;;;;;;;;5075846;28;20338;-84
2021/11/27 14:28:24;;;;;;;0.10;0.10;;;;;;;;;;5075803;28;20040;-83
2021/11/27 14:30:49;;;;;;;0.10;0.10;;;;;;;;;;5075602;28;20086;-83
2021/11/27 14:33:16;;;;;;;0.10;0.10;;;;;;;;;;5073945;28;20021;-84
2021/11/27 14:35:42;;;;;;;0.10;0.10;;;;;;;;;;5075597;28;20075;-84
2021/11/27 14:38:08;;;;;;;0.85;0.85;;;;;;;;;;5075234;28;20520;-82
2021/11/27 14:40:53;;;;;;;0.32;0.32;;;;;;;;;;5075276;28;20016;-84
2021/11/27 14:43:18;;;;;;;0.10;0.10;;;;;;;;;;5074171;28;20040;-84
2021/11/27 14:45:45;;;;;;;0.15;0.15;;;;;;;;;;5075696;28;20028;-84